Ana Sayfa
METAR-TAF:

METAR-TAF

Havaalanları :

Bedford, Pensilvanya, Amerika Birleşik Devletleri

Enlem: 40-05-10N, Boylam: 078-30-49W, yükseklik: 354 m

Güncel hava durumu gözlemi

Rapor saat 18:30 UTC de 23 dakika önce yapıldı.
Rüzgar kuzeybatıdan 3 kt
Sıcaklık 3°C
Nem 44%
Basınç 1028 hPa
Görüş mesafesi: 16.1 km
Açık gökyüzü

METAR: KHMZ 071830Z AUTO 31003KT 10SM CLR 03/M08 A3036 RMK AO2 T00271080

Saat: 13:53 (18:53 UTC)


TAF: eksik

4.000'den fazla havaalanı için hava durumu gözlemleri ve tahminleri (METAR ve TAF raporları).

Kullanılabilir istasyonlar harita üzerinde sarı ve kırmızı noktalarla gösterilir.

İstasyonun adını görmek için fareyi noktanın üzerinde gezdirin.

Sonrasında hava gözlem ve tahminlerini görmek için tıklayın.

Haritayı değiştirmek için: yaklaştırmak için siyah artı işaretli yeşil düğmeye ve uzaklaştırmak için de eksi işaretli düğmeye hızla tıklayın; bitişik haritalar için yeşil okları kullanın.


METAR-TAF: